sensor_id;sensor_type;location;lat;lon;timestamp;P1;durP1;ratioP1;P2;durP2;ratioP2
71679;SDS011;59512;42.662;23.254;2023-06-04T00:00:03;19.70;;;13.98;;
71679;SDS011;59512;42.662;23.254;2023-06-04T00:02:29;16.63;;;12.63;;
71679;SDS011;59512;42.662;23.254;2023-06-04T00:04:55;17.38;;;13.73;;
71679;SDS011;59512;42.662;23.254;2023-06-04T00:07:20;19.63;;;13.67;;
71679;SDS011;59512;42.662;23.254;2023-06-04T00:09:45;18.30;;;13.60;;
71679;SDS011;59512;42.662;23.254;2023-06-04T00:12:12;18.52;;;13.75;;
71679;SDS011;59512;42.662;23.254;2023-06-04T00:14:37;17.95;;;14.68;;
71679;SDS011;59512;42.662;23.254;2023-06-04T00:17:03;20.17;;;15.37;;
71679;SDS011;59512;42.662;23.254;2023-06-04T00:19:29;21.75;;;16.15;;
71679;SDS011;59512;42.662;23.254;2023-06-04T00:21:54;20.77;;;15.43;;
71679;SDS011;59512;42.662;23.254;2023-06-04T00:24:20;19.20;;;15.20;;
71679;SDS011;59512;42.662;23.254;2023-06-04T00:26:45;20.70;;;15.87;;
71679;SDS011;59512;42.662;23.254;2023-06-04T00:29:10;19.73;;;15.17;;
71679;SDS011;59512;42.662;23.254;2023-06-04T00:31:36;21.30;;;16.05;;
71679;SDS011;59512;42.662;23.254;2023-06-04T00:34:03;21.67;;;16.27;;
71679;SDS011;59512;42.662;23.254;2023-06-04T00:36:28;20.95;;;16.98;;
71679;SDS011;59512;42.662;23.254;2023-06-04T00:38:54;23.27;;;18.57;;
71679;SDS011;59512;42.662;23.254;2023-06-04T00:41:19;21.70;;;17.13;;
71679;SDS011;59512;42.662;23.254;2023-06-04T00:43:45;24.98;;;16.88;;
71679;SDS011;59512;42.662;23.254;2023-06-04T00:46:11;22.13;;;17.30;;
71679;SDS011;59512;42.662;23.254;2023-06-04T00:48:43;22.83;;;17.15;;
71679;SDS011;59512;42.662;23.254;2023-06-04T00:51:09;29.42;;;20.98;;
71679;SDS011;59512;42.662;23.254;2023-06-04T00:53:34;25.60;;;20.37;;
71679;SDS011;59512;42.662;23.254;2023-06-04T00:55:59;25.53;;;18.53;;
71679;SDS011;59512;42.662;23.254;2023-06-04T00:58:26;24.27;;;17.10;;
71679;SDS011;59512;42.662;23.254;2023-06-04T01:00:51;22.20;;;16.97;;
71679;SDS011;59512;42.662;23.254;2023-06-04T01:03:18;28.52;;;19.27;;
71679;SDS011;59512;42.662;23.254;2023-06-04T01:08:12;28.60;;;19.33;;
71679;SDS011;59512;42.662;23.254;2023-06-04T01:10:50;26.95;;;20.55;;
71679;SDS011;59512;42.662;23.254;2023-06-04T01:13:16;28.48;;;20.98;;
71679;SDS011;59512;42.662;23.254;2023-06-04T01:15:41;28.63;;;21.17;;
71679;SDS011;59512;42.662;23.254;2023-06-04T01:18:07;29.17;;;21.10;;
71679;SDS011;59512;42.662;23.254;2023-06-04T01:25:58;31.95;;;23.33;;
71679;SDS011;59512;42.662;23.254;2023-06-04T01:28:27;28.90;;;20.65;;
71679;SDS011;59512;42.662;23.254;2023-06-04T01:30:54;28.57;;;20.93;;
71679;SDS011;59512;42.662;23.254;2023-06-04T01:33:21;29.63;;;22.17;;
71679;SDS011;59512;42.662;23.254;2023-06-04T01:35:47;30.90;;;21.67;;
71679;SDS011;59512;42.662;23.254;2023-06-04T01:38:13;30.05;;;21.38;;
71679;SDS011;59512;42.662;23.254;2023-06-04T01:40:39;31.27;;;23.07;;
71679;SDS011;59512;42.662;23.254;2023-06-04T01:43:06;32.92;;;23.83;;
71679;SDS011;59512;42.662;23.254;2023-06-04T01:45:31;33.25;;;23.58;;
71679;SDS011;59512;42.662;23.254;2023-06-04T01:47:57;31.07;;;22.37;;
71679;SDS011;59512;42.662;23.254;2023-06-04T01:50:22;25.63;;;18.38;;
71679;SDS011;59512;42.662;23.254;2023-06-04T01:52:48;22.30;;;16.13;;
71679;SDS011;59512;42.662;23.254;2023-06-04T01:55:15;23.08;;;17.80;;
71679;SDS011;59512;42.662;23.254;2023-06-04T01:57:41;21.10;;;15.40;;
71679;SDS011;59512;42.662;23.254;2023-06-04T02:00:09;17.13;;;12.33;;
71679;SDS011;59512;42.662;23.254;2023-06-04T02:02:38;19.52;;;13.13;;
71679;SDS011;59512;42.662;23.254;2023-06-04T02:05:06;19.38;;;13.15;;
71679;SDS011;59512;42.662;23.254;2023-06-04T02:07:35;18.02;;;13.02;;
71679;SDS011;59512;42.662;23.254;2023-06-04T02:10:04;18.35;;;13.50;;
71679;SDS011;59512;42.662;23.254;2023-06-04T02:12:39;19.00;;;12.60;;
71679;SDS011;59512;42.662;23.254;2023-06-04T02:15:06;16.63;;;12.88;;
71679;SDS011;59512;42.662;23.254;2023-06-04T02:17:32;17.00;;;13.38;;
71679;SDS011;59512;42.662;23.254;2023-06-04T02:20:02;16.52;;;12.48;;
71679;SDS011;59512;42.662;23.254;2023-06-04T02:22:29;21.48;;;13.85;;
71679;SDS011;59512;42.662;23.254;2023-06-04T02:24:54;19.33;;;13.27;;
71679;SDS011;59512;42.662;23.254;2023-06-04T02:27:20;17.13;;;13.03;;
71679;SDS011;59512;42.662;23.254;2023-06-04T02:29:45;16.13;;;11.07;;
71679;SDS011;59512;42.662;23.254;2023-06-04T02:32:11;12.57;;;9.35;;
71679;SDS011;59512;42.662;23.254;2023-06-04T02:34:36;13.57;;;9.00;;
71679;SDS011;59512;42.662;23.254;2023-06-04T02:37:02;12.13;;;7.97;;
71679;SDS011;59512;42.662;23.254;2023-06-04T02:39:28;10.13;;;6.82;;
71679;SDS011;59512;42.662;23.254;2023-06-04T02:41:54;9.10;;;6.67;;
71679;SDS011;59512;42.662;23.254;2023-06-04T02:44:20;9.63;;;6.60;;
71679;SDS011;59512;42.662;23.254;2023-06-04T02:46:45;9.17;;;6.00;;
71679;SDS011;59512;42.662;23.254;2023-06-04T02:49:11;11.60;;;7.00;;
71679;SDS011;59512;42.662;23.254;2023-06-04T02:51:39;10.50;;;6.80;;
71679;SDS011;59512;42.662;23.254;2023-06-04T02:54:07;9.82;;;6.85;;
71679;SDS011;59512;42.662;23.254;2023-06-04T02:56:33;8.37;;;5.60;;
71679;SDS011;59512;42.662;23.254;2023-06-04T02:58:59;8.98;;;5.90;;
71679;SDS011;59512;42.662;23.254;2023-06-04T03:01:24;7.50;;;5.30;;
71679;SDS011;59512;42.662;23.254;2023-06-04T03:03:51;10.80;;;6.03;;
71679;SDS011;59512;42.662;23.254;2023-06-04T03:06:17;8.23;;;5.10;;
71679;SDS011;59512;42.662;23.254;2023-06-04T03:08:45;9.70;;;6.13;;
71679;SDS011;59512;42.662;23.254;2023-06-04T03:11:11;8.82;;;5.95;;
71679;SDS011;59512;42.662;23.254;2023-06-04T03:13:36;8.57;;;5.63;;
71679;SDS011;59512;42.662;23.254;2023-06-04T03:16:02;8.77;;;5.63;;
71679;SDS011;59512;42.662;23.254;2023-06-04T03:18:30;7.82;;;5.57;;
71679;SDS011;59512;42.662;23.254;2023-06-04T03:20:57;8.57;;;5.25;;
71679;SDS011;59512;42.662;23.254;2023-06-04T03:23:24;10.60;;;5.40;;
71679;SDS011;59512;42.662;23.254;2023-06-04T03:25:49;9.18;;;5.18;;
71679;SDS011;59512;42.662;23.254;2023-06-04T03:28:15;7.70;;;4.60;;
71679;SDS011;59512;42.662;23.254;2023-06-04T03:30:40;9.33;;;4.87;;
71679;SDS011;59512;42.662;23.254;2023-06-04T03:33:06;7.97;;;4.57;;
71679;SDS011;59512;42.662;23.254;2023-06-04T03:35:32;8.32;;;4.80;;
71679;SDS011;59512;42.662;23.254;2023-06-04T03:37:58;8.18;;;4.40;;
71679;SDS011;59512;42.662;23.254;2023-06-04T03:40:23;7.90;;;4.63;;
71679;SDS011;59512;42.662;23.254;2023-06-04T03:42:49;10.27;;;5.10;;
71679;SDS011;59512;42.662;23.254;2023-06-04T03:45:14;7.77;;;5.00;;
71679;SDS011;59512;42.662;23.254;2023-06-04T03:47:40;8.50;;;5.53;;
71679;SDS011;59512;42.662;23.254;2023-06-04T03:50:05;7.70;;;5.32;;
71679;SDS011;59512;42.662;23.254;2023-06-04T03:52:31;9.53;;;6.00;;
71679;SDS011;59512;42.662;23.254;2023-06-04T03:54:56;8.20;;;5.40;;
71679;SDS011;59512;42.662;23.254;2023-06-04T03:57:22;8.77;;;5.28;;
71679;SDS011;59512;42.662;23.254;2023-06-04T03:59:47;9.20;;;6.27;;
71679;SDS011;59512;42.662;23.254;2023-06-04T04:02:13;9.53;;;6.17;;
71679;SDS011;59512;42.662;23.254;2023-06-04T04:04:38;10.20;;;6.38;;
71679;SDS011;59512;42.662;23.254;2023-06-04T04:07:04;11.47;;;5.53;;
71679;SDS011;59512;42.662;23.254;2023-06-04T04:09:29;9.20;;;5.73;;
71679;SDS011;59512;42.662;23.254;2023-06-04T04:11:55;8.50;;;5.57;;
71679;SDS011;59512;42.662;23.254;2023-06-04T04:14:20;9.47;;;5.83;;
71679;SDS011;59512;42.662;23.254;2023-06-04T04:16:46;9.90;;;6.07;;
71679;SDS011;59512;42.662;23.254;2023-06-04T04:19:12;9.80;;;5.93;;
71679;SDS011;59512;42.662;23.254;2023-06-04T04:21:37;9.85;;;6.25;;
71679;SDS011;59512;42.662;23.254;2023-06-04T04:24:03;9.60;;;6.40;;
71679;SDS011;59512;42.662;23.254;2023-06-04T04:26:29;10.35;;;6.07;;
71679;SDS011;59512;42.662;23.254;2023-06-04T04:28:54;9.40;;;6.63;;
71679;SDS011;59512;42.662;23.254;2023-06-04T04:33:51;9.85;;;6.45;;
71679;SDS011;59512;42.662;23.254;2023-06-04T04:36:17;10.65;;;6.53;;
71679;SDS011;59512;42.662;23.254;2023-06-04T04:38:43;9.32;;;6.60;;
71679;SDS011;59512;42.662;23.254;2023-06-04T04:41:10;10.00;;;6.60;;
71679;SDS011;59512;42.662;23.254;2023-06-04T04:43:36;10.18;;;6.60;;
71679;SDS011;59512;42.662;23.254;2023-06-04T04:46:04;9.95;;;6.18;;
71679;SDS011;59512;42.662;23.254;2023-06-04T04:48:30;9.80;;;6.97;;
71679;SDS011;59512;42.662;23.254;2023-06-04T04:50:55;11.77;;;7.30;;
71679;SDS011;59512;42.662;23.254;2023-06-04T04:53:21;11.47;;;7.57;;
71679;SDS011;59512;42.662;23.254;2023-06-04T04:55:46;10.93;;;7.73;;
71679;SDS011;59512;42.662;23.254;2023-06-04T04:58:12;10.02;;;6.82;;
71679;SDS011;59512;42.662;23.254;2023-06-04T05:00:37;8.73;;;6.47;;
71679;SDS011;59512;42.662;23.254;2023-06-04T05:03:03;11.13;;;6.47;;
71679;SDS011;59512;42.662;23.254;2023-06-04T05:05:28;11.20;;;6.73;;
71679;SDS011;59512;42.662;23.254;2023-06-04T05:07:54;9.80;;;7.30;;
71679;SDS011;59512;42.662;23.254;2023-06-04T05:10:19;10.43;;;7.50;;
71679;SDS011;59512;42.662;23.254;2023-06-04T05:12:54;9.53;;;7.47;;
71679;SDS011;59512;42.662;23.254;2023-06-04T05:15:23;10.63;;;7.50;;
71679;SDS011;59512;42.662;23.254;2023-06-04T05:17:51;10.23;;;6.63;;
71679;SDS011;59512;42.662;23.254;2023-06-04T05:20:18;9.82;;;6.70;;
71679;SDS011;59512;42.662;23.254;2023-06-04T05:22:44;9.77;;;6.70;;
71679;SDS011;59512;42.662;23.254;2023-06-04T05:25:10;10.00;;;7.00;;
71679;SDS011;59512;42.662;23.254;2023-06-04T05:27:36;10.13;;;6.93;;
71679;SDS011;59512;42.662;23.254;2023-06-04T05:30:03;12.85;;;7.13;;
71679;SDS011;59512;42.662;23.254;2023-06-04T05:32:29;10.83;;;7.47;;
71679;SDS011;59512;42.662;23.254;2023-06-04T05:34:56;10.73;;;7.22;;
71679;SDS011;59512;42.662;23.254;2023-06-04T05:37:22;9.52;;;7.38;;
71679;SDS011;59512;42.662;23.254;2023-06-04T05:39:49;10.02;;;7.65;;
71679;SDS011;59512;42.662;23.254;2023-06-04T05:42:14;12.02;;;7.70;;
71679;SDS011;59512;42.662;23.254;2023-06-04T05:44:40;9.57;;;7.23;;
71679;SDS011;59512;42.662;23.254;2023-06-04T05:47:06;10.53;;;7.73;;
71679;SDS011;59512;42.662;23.254;2023-06-04T05:49:33;10.60;;;7.85;;
71679;SDS011;59512;42.662;23.254;2023-06-04T05:51:59;10.40;;;7.30;;
71679;SDS011;59512;42.662;23.254;2023-06-04T05:54:25;11.77;;;7.20;;
71679;SDS011;59512;42.662;23.254;2023-06-04T05:56:50;12.47;;;8.30;;
71679;SDS011;59512;42.662;23.254;2023-06-04T05:59:15;12.53;;;8.67;;
71679;SDS011;59512;42.662;23.254;2023-06-04T06:01:42;12.55;;;9.52;;
71679;SDS011;59512;42.662;23.254;2023-06-04T06:04:08;11.45;;;8.55;;
71679;SDS011;59512;42.662;23.254;2023-06-04T06:06:34;14.37;;;8.63;;
71679;SDS011;59512;42.662;23.254;2023-06-04T06:09:00;12.77;;;7.90;;
71679;SDS011;59512;42.662;23.254;2023-06-04T06:11:26;13.33;;;7.70;;
71679;SDS011;59512;42.662;23.254;2023-06-04T06:13:52;12.50;;;8.75;;
71679;SDS011;59512;42.662;23.254;2023-06-04T06:16:17;17.63;;;9.23;;
71679;SDS011;59512;42.662;23.254;2023-06-04T06:18:43;11.95;;;8.10;;
71679;SDS011;59512;42.662;23.254;2023-06-04T06:21:08;12.93;;;8.80;;
71679;SDS011;59512;42.662;23.254;2023-06-04T06:23:34;14.13;;;9.30;;
71679;SDS011;59512;42.662;23.254;2023-06-04T06:25:59;18.03;;;9.40;;
71679;SDS011;59512;42.662;23.254;2023-06-04T06:28:27;14.95;;;9.75;;
71679;SDS011;59512;42.662;23.254;2023-06-04T06:30:52;14.57;;;9.60;;
71679;SDS011;59512;42.662;23.254;2023-06-04T06:33:18;15.97;;;9.93;;
71679;SDS011;59512;42.662;23.254;2023-06-04T06:35:47;15.05;;;10.75;;
71679;SDS011;59512;42.662;23.254;2023-06-04T06:38:13;15.45;;;10.65;;
71679;SDS011;59512;42.662;23.254;2023-06-04T06:40:39;18.37;;;11.27;;
71679;SDS011;59512;42.662;23.254;2023-06-04T06:43:05;15.65;;;10.85;;
71679;SDS011;59512;42.662;23.254;2023-06-04T06:45:31;18.93;;;10.97;;
71679;SDS011;59512;42.662;23.254;2023-06-04T06:47:56;16.38;;;10.50;;
71679;SDS011;59512;42.662;23.254;2023-06-04T06:50:21;17.95;;;11.10;;
71679;SDS011;59512;42.662;23.254;2023-06-04T06:52:47;17.57;;;11.47;;
71679;SDS011;59512;42.662;23.254;2023-06-04T06:55:12;15.80;;;9.90;;
71679;SDS011;59512;42.662;23.254;2023-06-04T06:57:38;14.57;;;10.37;;
71679;SDS011;59512;42.662;23.254;2023-06-04T07:00:03;17.65;;;10.52;;
71679;SDS011;59512;42.662;23.254;2023-06-04T07:02:30;15.50;;;10.40;;
71679;SDS011;59512;42.662;23.254;2023-06-04T07:04:56;14.90;;;10.67;;
71679;SDS011;59512;42.662;23.254;2023-06-04T07:07:21;15.15;;;10.25;;
71679;SDS011;59512;42.662;23.254;2023-06-04T07:09:47;16.33;;;9.90;;
71679;SDS011;59512;42.662;23.254;2023-06-04T07:12:12;16.37;;;10.87;;
71679;SDS011;59512;42.662;23.254;2023-06-04T07:14:37;15.23;;;10.23;;
71679;SDS011;59512;42.662;23.254;2023-06-04T07:17:03;14.53;;;9.50;;
71679;SDS011;59512;42.662;23.254;2023-06-04T07:19:28;16.00;;;10.13;;
71679;SDS011;59512;42.662;23.254;2023-06-04T07:21:54;14.83;;;9.70;;
71679;SDS011;59512;42.662;23.254;2023-06-04T07:24:20;15.50;;;10.65;;
71679;SDS011;59512;42.662;23.254;2023-06-04T07:26:47;13.07;;;9.30;;
71679;SDS011;59512;42.662;23.254;2023-06-04T07:29:12;15.30;;;9.20;;
71679;SDS011;59512;42.662;23.254;2023-06-04T07:31:38;12.10;;;8.67;;
71679;SDS011;59512;42.662;23.254;2023-06-04T07:34:03;13.20;;;8.70;;
71679;SDS011;59512;42.662;23.254;2023-06-04T07:36:29;12.68;;;8.45;;
71679;SDS011;59512;42.662;23.254;2023-06-04T07:38:56;16.33;;;9.43;;
71679;SDS011;59512;42.662;23.254;2023-06-04T07:41:21;13.63;;;9.25;;
71679;SDS011;59512;42.662;23.254;2023-06-04T07:43:47;15.03;;;10.90;;
71679;SDS011;59512;42.662;23.254;2023-06-04T07:46:12;17.17;;;10.57;;
71679;SDS011;59512;42.662;23.254;2023-06-04T07:48:37;13.70;;;8.67;;
71679;SDS011;59512;42.662;23.254;2023-06-04T07:51:03;17.15;;;9.48;;
71679;SDS011;59512;42.662;23.254;2023-06-04T07:53:29;13.70;;;9.83;;
71679;SDS011;59512;42.662;23.254;2023-06-04T07:55:55;14.13;;;10.10;;
71679;SDS011;59512;42.662;23.254;2023-06-04T07:58:21;14.52;;;10.25;;
71679;SDS011;59512;42.662;23.254;2023-06-04T08:00:47;16.52;;;9.85;;
71679;SDS011;59512;42.662;23.254;2023-06-04T08:03:12;14.77;;;9.32;;
71679;SDS011;59512;42.662;23.254;2023-06-04T08:05:40;15.43;;;9.23;;
71679;SDS011;59512;42.662;23.254;2023-06-04T08:08:05;15.27;;;10.10;;
71679;SDS011;59512;42.662;23.254;2023-06-04T08:10:31;15.65;;;10.45;;
71679;SDS011;59512;42.662;23.254;2023-06-04T08:12:57;19.05;;;11.13;;
71679;SDS011;59512;42.662;23.254;2023-06-04T08:15:22;14.83;;;11.10;;
71679;SDS011;59512;42.662;23.254;2023-06-04T08:17:48;15.55;;;10.27;;
71679;SDS011;59512;42.662;23.254;2023-06-04T08:20:14;16.23;;;11.00;;
71679;SDS011;59512;42.662;23.254;2023-06-04T08:22:39;17.37;;;11.30;;
71679;SDS011;59512;42.662;23.254;2023-06-04T08:25:06;17.52;;;11.85;;
71679;SDS011;59512;42.662;23.254;2023-06-04T08:27:32;21.83;;;12.02;;
71679;SDS011;59512;42.662;23.254;2023-06-04T08:29:57;18.93;;;12.10;;
71679;SDS011;59512;42.662;23.254;2023-06-04T08:32:23;16.87;;;11.47;;
71679;SDS011;59512;42.662;23.254;2023-06-04T08:34:49;19.73;;;12.15;;
71679;SDS011;59512;42.662;23.254;2023-06-04T08:37:15;19.15;;;12.93;;
71679;SDS011;59512;42.662;23.254;2023-06-04T08:39:41;19.83;;;12.55;;
71679;SDS011;59512;42.662;23.254;2023-06-04T08:42:07;19.07;;;12.83;;
71679;SDS011;59512;42.662;23.254;2023-06-04T08:44:54;16.38;;;11.82;;
71679;SDS011;59512;42.662;23.254;2023-06-04T08:47:22;16.90;;;11.85;;
71679;SDS011;59512;42.662;23.254;2023-06-04T08:49:50;19.10;;;13.53;;
71679;SDS011;59512;42.662;23.254;2023-06-04T08:52:18;20.60;;;13.43;;
71679;SDS011;59512;42.662;23.254;2023-06-04T08:54:49;19.60;;;12.55;;
71679;SDS011;59512;42.662;23.254;2023-06-04T08:57:17;19.00;;;12.88;;
71679;SDS011;59512;42.662;23.254;2023-06-04T08:59:44;20.10;;;13.55;;
71679;SDS011;59512;42.662;23.254;2023-06-04T09:02:11;21.00;;;13.00;;
71679;SDS011;59512;42.662;23.254;2023-06-04T09:04:38;19.85;;;12.65;;
71679;SDS011;59512;42.662;23.254;2023-06-04T09:07:05;20.40;;;12.93;;
71679;SDS011;59512;42.662;23.254;2023-06-04T09:09:31;19.17;;;12.15;;
71679;SDS011;59512;42.662;23.254;2023-06-04T09:11:57;19.85;;;12.45;;
71679;SDS011;59512;42.662;23.254;2023-06-04T09:14:22;19.47;;;11.60;;
71679;SDS011;59512;42.662;23.254;2023-06-04T09:16:51;18.30;;;12.13;;
71679;SDS011;59512;42.662;23.254;2023-06-04T09:19:18;17.17;;;11.27;;
71679;SDS011;59512;42.662;23.254;2023-06-04T09:24:23;18.38;;;11.50;;
71679;SDS011;59512;42.662;23.254;2023-06-04T09:26:50;20.13;;;11.70;;
71679;SDS011;59512;42.662;23.254;2023-06-04T09:29:16;17.97;;;11.80;;
71679;SDS011;59512;42.662;23.254;2023-06-04T09:31:44;18.85;;;11.90;;
71679;SDS011;59512;42.662;23.254;2023-06-04T09:34:11;18.63;;;12.55;;
71679;SDS011;59512;42.662;23.254;2023-06-04T09:36:37;17.70;;;11.83;;
71679;SDS011;59512;42.662;23.254;2023-06-04T09:39:02;20.45;;;12.45;;
71679;SDS011;59512;42.662;23.254;2023-06-04T09:41:29;21.43;;;13.50;;
71679;SDS011;59512;42.662;23.254;2023-06-04T09:44:01;17.05;;;11.85;;
71679;SDS011;59512;42.662;23.254;2023-06-04T09:46:28;16.90;;;11.15;;
71679;SDS011;59512;42.662;23.254;2023-06-04T09:49:03;16.93;;;11.00;;
71679;SDS011;59512;42.662;23.254;2023-06-04T09:51:30;16.80;;;10.85;;
71679;SDS011;59512;42.662;23.254;2023-06-04T09:54:02;16.92;;;9.75;;
71679;SDS011;59512;42.662;23.254;2023-06-04T09:56:28;16.48;;;11.00;;
71679;SDS011;59512;42.662;23.254;2023-06-04T09:58:54;18.83;;;10.47;;
71679;SDS011;59512;42.662;23.254;2023-06-04T10:01:22;15.18;;;10.38;;
71679;SDS011;59512;42.662;23.254;2023-06-04T10:03:50;20.30;;;10.80;;
71679;SDS011;59512;42.662;23.254;2023-06-04T10:06:17;16.17;;;10.70;;
71679;SDS011;59512;42.662;23.254;2023-06-04T10:08:44;17.45;;;10.88;;
71679;SDS011;59512;42.662;23.254;2023-06-04T10:11:11;15.25;;;11.27;;
71679;SDS011;59512;42.662;23.254;2023-06-04T10:13:42;16.38;;;10.25;;
71679;SDS011;59512;42.662;23.254;2023-06-04T10:16:12;15.45;;;10.68;;
71679;SDS011;59512;42.662;23.254;2023-06-04T10:18:37;19.53;;;10.63;;
71679;SDS011;59512;42.662;23.254;2023-06-04T10:21:03;17.73;;;11.50;;
71679;SDS011;59512;42.662;23.254;2023-06-04T10:23:29;14.03;;;9.77;;
71679;SDS011;59512;42.662;23.254;2023-06-04T10:25:55;17.00;;;10.73;;
71679;SDS011;59512;42.662;23.254;2023-06-04T10:28:22;15.83;;;11.23;;
71679;SDS011;59512;42.662;23.254;2023-06-04T10:30:48;18.52;;;10.68;;
71679;SDS011;59512;42.662;23.254;2023-06-04T10:33:16;15.70;;;11.18;;
71679;SDS011;59512;42.662;23.254;2023-06-04T10:35:45;16.25;;;9.90;;
71679;SDS011;59512;42.662;23.254;2023-06-04T10:38:11;13.87;;;10.10;;
71679;SDS011;59512;42.662;23.254;2023-06-04T10:40:41;15.55;;;11.05;;
71679;SDS011;59512;42.662;23.254;2023-06-04T10:43:08;15.73;;;9.85;;
71679;SDS011;59512;42.662;23.254;2023-06-04T10:45:34;14.30;;;10.03;;
71679;SDS011;59512;42.662;23.254;2023-06-04T10:48:03;17.35;;;10.57;;
71679;SDS011;59512;42.662;23.254;2023-06-04T10:50:33;13.70;;;10.00;;
71679;SDS011;59512;42.662;23.254;2023-06-04T10:53:00;14.35;;;9.02;;
71679;SDS011;59512;42.662;23.254;2023-06-04T10:55:31;13.87;;;9.23;;
71679;SDS011;59512;42.662;23.254;2023-06-04T10:57:58;15.32;;;9.95;;
71679;SDS011;59512;42.662;23.254;2023-06-04T11:00:37;13.75;;;10.27;;
71679;SDS011;59512;42.662;23.254;2023-06-04T11:03:03;16.50;;;10.20;;
71679;SDS011;59512;42.662;23.254;2023-06-04T11:05:34;16.42;;;10.32;;
71679;SDS011;59512;42.662;23.254;2023-06-04T11:08:10;14.43;;;9.77;;
71679;SDS011;59512;42.662;23.254;2023-06-04T11:10:38;15.30;;;10.13;;
71679;SDS011;59512;42.662;23.254;2023-06-04T11:13:12;14.65;;;9.75;;
71679;SDS011;59512;42.662;23.254;2023-06-04T11:15:39;13.95;;;9.57;;
71679;SDS011;59512;42.662;23.254;2023-06-04T11:18:07;12.93;;;9.53;;
71679;SDS011;59512;42.662;23.254;2023-06-04T11:20:32;13.57;;;9.88;;
71679;SDS011;59512;42.662;23.254;2023-06-04T11:22:58;16.63;;;9.43;;
71679;SDS011;59512;42.662;23.254;2023-06-04T11:25:28;13.93;;;9.75;;
71679;SDS011;59512;42.662;23.254;2023-06-04T11:27:55;17.15;;;9.85;;
71679;SDS011;59512;42.662;23.254;2023-06-04T11:30:22;13.60;;;8.50;;
71679;SDS011;59512;42.662;23.254;2023-06-04T11:32:48;13.52;;;8.77;;
71679;SDS011;59512;42.662;23.254;2023-06-04T11:35:13;12.90;;;8.87;;
71679;SDS011;59512;42.662;23.254;2023-06-04T11:37:39;13.63;;;8.98;;
71679;SDS011;59512;42.662;23.254;2023-06-04T11:40:17;14.20;;;9.53;;
71679;SDS011;59512;42.662;23.254;2023-06-04T11:42:48;13.90;;;9.57;;
71679;SDS011;59512;42.662;23.254;2023-06-04T11:45:15;17.10;;;9.80;;
71679;SDS011;59512;42.662;23.254;2023-06-04T11:47:52;13.15;;;9.18;;
71679;SDS011;59512;42.662;23.254;2023-06-04T11:50:19;13.40;;;9.52;;
71679;SDS011;59512;42.662;23.254;2023-06-04T11:52:45;11.97;;;9.13;;
71679;SDS011;59512;42.662;23.254;2023-06-04T11:55:12;13.35;;;9.48;;
71679;SDS011;59512;42.662;23.254;2023-06-04T11:57:38;14.05;;;9.60;;
71679;SDS011;59512;42.662;23.254;2023-06-04T12:00:04;13.50;;;10.20;;
71679;SDS011;59512;42.662;23.254;2023-06-04T12:02:39;32.00;;;10.75;;
71679;SDS011;59512;42.662;23.254;2023-06-04T12:05:14;14.85;;;9.95;;
71679;SDS011;59512;42.662;23.254;2023-06-04T12:07:40;14.30;;;9.38;;
71679;SDS011;59512;42.662;23.254;2023-06-04T12:10:08;12.07;;;9.63;;
71679;SDS011;59512;42.662;23.254;2023-06-04T12:12:36;13.38;;;9.75;;
71679;SDS011;59512;42.662;23.254;2023-06-04T12:15:02;12.98;;;9.80;;
71679;SDS011;59512;42.662;23.254;2023-06-04T12:17:30;13.00;;;10.77;;
71679;SDS011;59512;42.662;23.254;2023-06-04T12:19:56;18.63;;;11.50;;
71679;SDS011;59512;42.662;23.254;2023-06-04T12:22:23;15.15;;;11.70;;
71679;SDS011;59512;42.662;23.254;2023-06-04T12:24:50;14.43;;;11.70;;
71679;SDS011;59512;42.662;23.254;2023-06-04T12:27:22;15.55;;;12.65;;
71679;SDS011;59512;42.662;23.254;2023-06-04T12:32:24;17.25;;;13.90;;
71679;SDS011;59512;42.662;23.254;2023-06-04T12:34:50;16.67;;;13.33;;
71679;SDS011;59512;42.662;23.254;2023-06-04T12:37:15;15.15;;;12.45;;
71679;SDS011;59512;42.662;23.254;2023-06-04T12:39:40;16.03;;;13.70;;
71679;SDS011;59512;42.662;23.254;2023-06-04T12:42:08;17.08;;;13.18;;
71679;SDS011;59512;42.662;23.254;2023-06-04T12:44:38;16.33;;;13.53;;
71679;SDS011;59512;42.662;23.254;2023-06-04T12:47:04;19.60;;;13.85;;
71679;SDS011;59512;42.662;23.254;2023-06-04T12:49:29;22.27;;;14.88;;
71679;SDS011;59512;42.662;23.254;2023-06-04T12:51:55;15.77;;;13.23;;
71679;SDS011;59512;42.662;23.254;2023-06-04T12:54:20;18.30;;;13.33;;
71679;SDS011;59512;42.662;23.254;2023-06-04T12:56:46;16.83;;;12.95;;
71679;SDS011;59512;42.662;23.254;2023-06-04T12:59:11;15.20;;;12.30;;
71679;SDS011;59512;42.662;23.254;2023-06-04T13:01:37;16.23;;;11.87;;
71679;SDS011;59512;42.662;23.254;2023-06-04T13:04:03;14.57;;;12.10;;
71679;SDS011;59512;42.662;23.254;2023-06-04T13:06:29;16.77;;;12.27;;
71679;SDS011;59512;42.662;23.254;2023-06-04T13:08:54;14.97;;;11.90;;
71679;SDS011;59512;42.662;23.254;2023-06-04T13:11:20;14.30;;;12.03;;
71679;SDS011;59512;42.662;23.254;2023-06-04T13:13:46;14.38;;;11.65;;
71679;SDS011;59512;42.662;23.254;2023-06-04T13:16:12;14.57;;;12.10;;
71679;SDS011;59512;42.662;23.254;2023-06-04T13:18:37;14.57;;;11.88;;
71679;SDS011;59512;42.662;23.254;2023-06-04T13:21:03;14.90;;;12.40;;
71679;SDS011;59512;42.662;23.254;2023-06-04T13:23:28;15.83;;;12.83;;
71679;SDS011;59512;42.662;23.254;2023-06-04T13:25:54;18.70;;;13.50;;
71679;SDS011;59512;42.662;23.254;2023-06-04T13:28:19;16.27;;;13.15;;
71679;SDS011;59512;42.662;23.254;2023-06-04T13:30:45;17.35;;;14.10;;
71679;SDS011;59512;42.662;23.254;2023-06-04T13:33:10;18.30;;;13.73;;
71679;SDS011;59512;42.662;23.254;2023-06-04T13:35:36;16.67;;;13.93;;
71679;SDS011;59512;42.662;23.254;2023-06-04T13:38:04;15.80;;;13.35;;
71679;SDS011;59512;42.662;23.254;2023-06-04T13:40:31;18.45;;;13.65;;
71679;SDS011;59512;42.662;23.254;2023-06-04T13:42:58;14.57;;;12.23;;
71679;SDS011;59512;42.662;23.254;2023-06-04T13:45:24;17.05;;;12.57;;
71679;SDS011;59512;42.662;23.254;2023-06-04T13:47:49;15.13;;;12.00;;
71679;SDS011;59512;42.662;23.254;2023-06-04T13:50:15;14.97;;;11.47;;
71679;SDS011;59512;42.662;23.254;2023-06-04T13:52:40;15.63;;;11.30;;
71679;SDS011;59512;42.662;23.254;2023-06-04T13:55:06;12.73;;;10.02;;
71679;SDS011;59512;42.662;23.254;2023-06-04T13:57:32;13.73;;;9.23;;
71679;SDS011;59512;42.662;23.254;2023-06-04T13:59:57;11.82;;;9.68;;
71679;SDS011;59512;42.662;23.254;2023-06-04T14:02:23;13.73;;;9.60;;
71679;SDS011;59512;42.662;23.254;2023-06-04T14:04:52;13.53;;;9.90;;
71679;SDS011;59512;42.662;23.254;2023-06-04T14:07:18;13.90;;;9.23;;
71679;SDS011;59512;42.662;23.254;2023-06-04T14:09:43;11.70;;;9.88;;
71679;SDS011;59512;42.662;23.254;2023-06-04T14:12:09;12.80;;;9.70;;
71679;SDS011;59512;42.662;23.254;2023-06-04T14:14:34;13.33;;;9.33;;
71679;SDS011;59512;42.662;23.254;2023-06-04T14:17:03;14.18;;;9.52;;
71679;SDS011;59512;42.662;23.254;2023-06-04T14:19:29;13.18;;;9.60;;
71679;SDS011;59512;42.662;23.254;2023-06-04T14:21:55;14.80;;;9.47;;
71679;SDS011;59512;42.662;23.254;2023-06-04T14:24:20;15.57;;;10.20;;
71679;SDS011;59512;42.662;23.254;2023-06-04T14:26:46;14.35;;;10.40;;